sensor_id;sensor_type;location;lat;lon;timestamp;temperature;humidity
429;DHT22;201;48.758;9.290;2022-09-01T00:00:23;14.70;23.80
429;DHT22;201;48.758;9.290;2022-09-01T00:02:54;14.70;23.70
429;DHT22;201;48.758;9.290;2022-09-01T00:05:20;14.70;23.70
429;DHT22;201;48.758;9.290;2022-09-01T00:07:45;14.60;23.60
429;DHT22;201;48.758;9.290;2022-09-01T00:10:11;14.70;23.70
429;DHT22;201;48.758;9.290;2022-09-01T00:12:37;14.70;23.60
429;DHT22;201;48.758;9.290;2022-09-01T00:15:06;14.60;23.40
429;DHT22;201;48.758;9.290;2022-09-01T00:17:32;14.60;23.60
429;DHT22;201;48.758;9.290;2022-09-01T00:19:59;14.60;23.70
429;DHT22;201;48.758;9.290;2022-09-01T00:22:24;14.60;23.60
429;DHT22;201;48.758;9.290;2022-09-01T00:24:50;14.60;23.60
429;DHT22;201;48.758;9.290;2022-09-01T00:27:16;14.60;23.60
429;DHT22;201;48.758;9.290;2022-09-01T00:29:41;14.60;23.60
429;DHT22;201;48.758;9.290;2022-09-01T00:32:07;14.60;23.50
429;DHT22;201;48.758;9.290;2022-09-01T00:34:32;14.60;23.40
429;DHT22;201;48.758;9.290;2022-09-01T00:36:58;14.60;23.20
429;DHT22;201;48.758;9.290;2022-09-01T00:39:23;14.60;23.20
429;DHT22;201;48.758;9.290;2022-09-01T00:41:49;14.60;23.10
429;DHT22;201;48.758;9.290;2022-09-01T00:44:18;14.60;23.10
429;DHT22;201;48.758;9.290;2022-09-01T00:46:49;14.60;23.10
429;DHT22;201;48.758;9.290;2022-09-01T00:49:21;14.50;22.80
429;DHT22;201;48.758;9.290;2022-09-01T00:51:51;14.50;22.80
429;DHT22;201;48.758;9.290;2022-09-01T00:54:21;14.50;22.70
429;DHT22;201;48.758;9.290;2022-09-01T00:56:47;14.50;22.90
429;DHT22;201;48.758;9.290;2022-09-01T00:59:14;14.50;22.80
429;DHT22;201;48.758;9.290;2022-09-01T01:01:41;14.50;22.80
429;DHT22;201;48.758;9.290;2022-09-01T01:04:08;14.50;22.80
429;DHT22;201;48.758;9.290;2022-09-01T01:06:43;14.50;22.70
429;DHT22;201;48.758;9.290;2022-09-01T01:09:15;14.50;22.50
429;DHT22;201;48.758;9.290;2022-09-01T01:11:41;14.40;22.20
429;DHT22;201;48.758;9.290;2022-09-01T01:14:10;14.40;21.90
429;DHT22;201;48.758;9.290;2022-09-01T01:16:46;14.40;21.90
429;DHT22;201;48.758;9.290;2022-09-01T01:19:30;14.40;21.80
429;DHT22;201;48.758;9.290;2022-09-01T01:22:40;14.40;21.90
429;DHT22;201;48.758;9.290;2022-09-01T01:25:28;14.30;22.00
429;DHT22;201;48.758;9.290;2022-09-01T01:28:20;14.30;21.90
429;DHT22;201;48.758;9.290;2022-09-01T01:30:52;14.30;21.90
429;DHT22;201;48.758;9.290;2022-09-01T01:33:19;14.30;22.50
429;DHT22;201;48.758;9.290;2022-09-01T01:35:47;14.20;22.10
429;DHT22;201;48.758;9.290;2022-09-01T01:38:13;14.30;22.30
429;DHT22;201;48.758;9.290;2022-09-01T01:40:39;14.30;22.20
429;DHT22;201;48.758;9.290;2022-09-01T01:43:05;14.20;22.00
429;DHT22;201;48.758;9.290;2022-09-01T01:45:31;14.20;22.00
429;DHT22;201;48.758;9.290;2022-09-01T01:47:57;14.20;22.20
429;DHT22;201;48.758;9.290;2022-09-01T01:50:28;14.20;22.20
429;DHT22;201;48.758;9.290;2022-09-01T01:52:58;14.20;22.30
429;DHT22;201;48.758;9.290;2022-09-01T01:55:25;14.10;22.20
429;DHT22;201;48.758;9.290;2022-09-01T01:57:53;14.10;22.30
429;DHT22;201;48.758;9.290;2022-09-01T02:00:21;14.10;22.30
429;DHT22;201;48.758;9.290;2022-09-01T02:02:49;14.10;22.40
429;DHT22;201;48.758;9.290;2022-09-01T02:05:21;14.10;22.50
429;DHT22;201;48.758;9.290;2022-09-01T02:07:59;14.10;22.70
429;DHT22;201;48.758;9.290;2022-09-01T02:10:29;14.10;22.70
429;DHT22;201;48.758;9.290;2022-09-01T02:12:59;14.10;22.80
429;DHT22;201;48.758;9.290;2022-09-01T02:15:29;14.00;22.80
429;DHT22;201;48.758;9.290;2022-09-01T02:17:54;14.00;22.90
429;DHT22;201;48.758;9.290;2022-09-01T02:20:24;14.00;23.00
429;DHT22;201;48.758;9.290;2022-09-01T02:22:53;14.00;22.90
429;DHT22;201;48.758;9.290;2022-09-01T02:25:20;13.90;23.00
429;DHT22;201;48.758;9.290;2022-09-01T02:27:46;13.90;23.30
429;DHT22;201;48.758;9.290;2022-09-01T02:30:15;13.80;23.40
429;DHT22;201;48.758;9.290;2022-09-01T02:32:41;13.80;23.60
429;DHT22;201;48.758;9.290;2022-09-01T02:35:07;13.80;23.80
429;DHT22;201;48.758;9.290;2022-09-01T02:37:35;13.80;23.80
429;DHT22;201;48.758;9.290;2022-09-01T02:40:01;13.80;23.90
429;DHT22;201;48.758;9.290;2022-09-01T02:42:27;13.90;23.90
429;DHT22;201;48.758;9.290;2022-09-01T02:44:54;13.90;23.90
429;DHT22;201;48.758;9.290;2022-09-01T02:47:21;13.90;23.70
429;DHT22;201;48.758;9.290;2022-09-01T02:49:50;13.90;23.70
429;DHT22;201;48.758;9.290;2022-09-01T02:52:16;13.90;23.50
429;DHT22;201;48.758;9.290;2022-09-01T02:54:45;13.80;23.40
429;DHT22;201;48.758;9.290;2022-09-01T02:57:13;13.80;23.30
429;DHT22;201;48.758;9.290;2022-09-01T02:59:38;13.80;23.30
429;DHT22;201;48.758;9.290;2022-09-01T03:02:06;13.80;23.20
429;DHT22;201;48.758;9.290;2022-09-01T03:04:32;13.80;23.10
429;DHT22;201;48.758;9.290;2022-09-01T03:07:03;13.80;23.10
429;DHT22;201;48.758;9.290;2022-09-01T03:09:29;13.70;22.90
429;DHT22;201;48.758;9.290;2022-09-01T03:11:57;13.70;22.80
429;DHT22;201;48.758;9.290;2022-09-01T03:14:23;13.70;22.70
429;DHT22;201;48.758;9.290;2022-09-01T03:16:48;13.70;22.70
429;DHT22;201;48.758;9.290;2022-09-01T03:19:14;13.70;22.70
429;DHT22;201;48.758;9.290;2022-09-01T03:21:42;13.70;22.70
429;DHT22;201;48.758;9.290;2022-09-01T03:24:11;13.60;22.60
429;DHT22;201;48.758;9.290;2022-09-01T03:26:40;13.60;22.50
429;DHT22;201;48.758;9.290;2022-09-01T03:29:07;13.60;22.60
429;DHT22;201;48.758;9.290;2022-09-01T03:31:33;13.50;22.50
429;DHT22;201;48.758;9.290;2022-09-01T03:33:59;13.50;22.80
429;DHT22;201;48.758;9.290;2022-09-01T03:36:27;13.60;23.00
429;DHT22;201;48.758;9.290;2022-09-01T03:38:53;13.60;23.00
429;DHT22;201;48.758;9.290;2022-09-01T03:41:24;13.60;23.20
429;DHT22;201;48.758;9.290;2022-09-01T03:43:50;13.70;23.30
429;DHT22;201;48.758;9.290;2022-09-01T03:46:19;13.70;23.70
429;DHT22;201;48.758;9.290;2022-09-01T03:48:51;13.70;23.30
429;DHT22;201;48.758;9.290;2022-09-01T03:51:18;13.70;23.70
429;DHT22;201;48.758;9.290;2022-09-01T03:53:44;13.70;23.00
429;DHT22;201;48.758;9.290;2022-09-01T03:56:11;13.70;23.20
429;DHT22;201;48.758;9.290;2022-09-01T03:58:38;13.60;23.20
429;DHT22;201;48.758;9.290;2022-09-01T04:01:03;13.70;23.50
429;DHT22;201;48.758;9.290;2022-09-01T04:03:32;13.70;23.50
429;DHT22;201;48.758;9.290;2022-09-01T04:05:59;13.80;23.50
429;DHT22;201;48.758;9.290;2022-09-01T04:08:25;13.80;23.30
429;DHT22;201;48.758;9.290;2022-09-01T04:10:56;13.80;23.20
429;DHT22;201;48.758;9.290;2022-09-01T04:13:25;13.80;23.40
429;DHT22;201;48.758;9.290;2022-09-01T04:15:52;13.70;23.00
429;DHT22;201;48.758;9.290;2022-09-01T04:18:18;13.70;23.00
429;DHT22;201;48.758;9.290;2022-09-01T04:20:52;13.70;22.90
429;DHT22;201;48.758;9.290;2022-09-01T04:23:21;13.70;22.80
429;DHT22;201;48.758;9.290;2022-09-01T04:25:52;13.70;23.10
429;DHT22;201;48.758;9.290;2022-09-01T04:28:22;13.70;23.20
429;DHT22;201;48.758;9.290;2022-09-01T04:30:53;13.70;23.30
429;DHT22;201;48.758;9.290;2022-09-01T04:33:27;13.70;23.40
429;DHT22;201;48.758;9.290;2022-09-01T04:36:01;13.70;23.40
429;DHT22;201;48.758;9.290;2022-09-01T04:38:28;13.70;23.90
429;DHT22;201;48.758;9.290;2022-09-01T04:40:54;13.80;23.40
429;DHT22;201;48.758;9.290;2022-09-01T04:43:22;13.80;23.20
429;DHT22;201;48.758;9.290;2022-09-01T04:45:47;13.90;23.40
429;DHT22;201;48.758;9.290;2022-09-01T04:48:17;13.90;23.40
429;DHT22;201;48.758;9.290;2022-09-01T04:50:46;14.00;23.20
429;DHT22;201;48.758;9.290;2022-09-01T04:53:14;14.10;23.10
429;DHT22;201;48.758;9.290;2022-09-01T04:55:41;14.10;22.90
429;DHT22;201;48.758;9.290;2022-09-01T04:58:15;14.10;22.60
429;DHT22;201;48.758;9.290;2022-09-01T05:00:43;14.20;22.50
429;DHT22;201;48.758;9.290;2022-09-01T05:03:10;14.20;22.50
429;DHT22;201;48.758;9.290;2022-09-01T05:05:45;14.30;21.90
429;DHT22;201;48.758;9.290;2022-09-01T05:08:13;14.40;21.30
429;DHT22;201;48.758;9.290;2022-09-01T05:10:42;14.40;21.30
429;DHT22;201;48.758;9.290;2022-09-01T05:13:11;14.50;21.40
429;DHT22;201;48.758;9.290;2022-09-01T05:15:40;14.60;21.40
429;DHT22;201;48.758;9.290;2022-09-01T05:18:20;14.70;21.60
429;DHT22;201;48.758;9.290;2022-09-01T05:20:50;14.70;21.50
429;DHT22;201;48.758;9.290;2022-09-01T05:23:17;14.80;21.60
429;DHT22;201;48.758;9.290;2022-09-01T05:25:46;14.90;21.70
429;DHT22;201;48.758;9.290;2022-09-01T05:28:14;14.90;21.10
429;DHT22;201;48.758;9.290;2022-09-01T05:30:40;15.00;20.70
429;DHT22;201;48.758;9.290;2022-09-01T05:33:06;15.10;20.20
429;DHT22;201;48.758;9.290;2022-09-01T05:35:38;15.10;19.70
429;DHT22;201;48.758;9.290;2022-09-01T05:38:06;15.00;19.40
429;DHT22;201;48.758;9.290;2022-09-01T05:40:35;15.00;19.70
429;DHT22;201;48.758;9.290;2022-09-01T05:43:06;15.20;19.40
429;DHT22;201;48.758;9.290;2022-09-01T05:45:34;15.20;19.30
429;DHT22;201;48.758;9.290;2022-09-01T05:48:00;15.20;19.00
429;DHT22;201;48.758;9.290;2022-09-01T05:50:26;15.30;18.00
429;DHT22;201;48.758;9.290;2022-09-01T05:52:52;15.40;17.80
429;DHT22;201;48.758;9.290;2022-09-01T05:55:17;15.50;17.40
429;DHT22;201;48.758;9.290;2022-09-01T05:57:43;15.60;16.70
429;DHT22;201;48.758;9.290;2022-09-01T06:00:13;15.60;16.20
429;DHT22;201;48.758;9.290;2022-09-01T06:02:41;15.80;15.80
429;DHT22;201;48.758;9.290;2022-09-01T06:05:08;15.80;15.90
429;DHT22;201;48.758;9.290;2022-09-01T06:07:35;15.90;15.40
429;DHT22;201;48.758;9.290;2022-09-01T06:10:03;16.00;14.70
429;DHT22;201;48.758;9.290;2022-09-01T06:12:29;16.10;14.00
429;DHT22;201;48.758;9.290;2022-09-01T06:14:55;16.20;14.10
429;DHT22;201;48.758;9.290;2022-09-01T06:17:23;16.50;14.30
429;DHT22;201;48.758;9.290;2022-09-01T06:19:54;16.90;13.00
429;DHT22;201;48.758;9.290;2022-09-01T06:22:21;17.40;10.80
429;DHT22;201;48.758;9.290;2022-09-01T06:24:48;18.30;8.00
429;DHT22;201;48.758;9.290;2022-09-01T06:27:16;19.50;4.00
429;DHT22;201;48.758;9.290;2022-09-01T06:29:43;20.20;1.50
429;DHT22;201;48.758;9.290;2022-09-01T06:32:10;19.80;1.00
429;DHT22;201;48.758;9.290;2022-09-01T06:34:42;19.50;1.10
429;DHT22;201;48.758;9.290;2022-09-01T06:37:09;19.10;1.90
429;DHT22;201;48.758;9.290;2022-09-01T06:39:36;19.20;2.30
429;DHT22;201;48.758;9.290;2022-09-01T06:42:01;19.20;1.60
429;DHT22;201;48.758;9.290;2022-09-01T06:44:27;19.20;1.00
429;DHT22;201;48.758;9.290;2022-09-01T06:46:55;19.20;1.50
429;DHT22;201;48.758;9.290;2022-09-01T06:49:21;19.20;1.40
429;DHT22;201;48.758;9.290;2022-09-01T06:51:47;19.20;2.00
429;DHT22;201;48.758;9.290;2022-09-01T06:54:15;19.10;1.90
429;DHT22;201;48.758;9.290;2022-09-01T06:56:41;19.20;1.70
429;DHT22;201;48.758;9.290;2022-09-01T06:59:07;19.30;1.30
429;DHT22;201;48.758;9.290;2022-09-01T07:01:32;19.50;1.50
429;DHT22;201;48.758;9.290;2022-09-01T07:03:58;20.00;1.00
429;DHT22;201;48.758;9.290;2022-09-01T07:06:25;20.50;1.00
429;DHT22;201;48.758;9.290;2022-09-01T07:08:53;21.10;1.00
429;DHT22;201;48.758;9.290;2022-09-01T07:11:21;22.30;1.00
429;DHT22;201;48.758;9.290;2022-09-01T07:13:53;23.60;1.00
429;DHT22;201;48.758;9.290;2022-09-01T07:16:20;25.00;1.00
429;DHT22;201;48.758;9.290;2022-09-01T07:18:47;26.30;1.00
429;DHT22;201;48.758;9.290;2022-09-01T07:21:13;27.70;1.00
429;DHT22;201;48.758;9.290;2022-09-01T07:23:38;27.80;1.00
429;DHT22;201;48.758;9.290;2022-09-01T07:26:07;27.40;1.00
429;DHT22;201;48.758;9.290;2022-09-01T07:28:33;25.60;1.00
429;DHT22;201;48.758;9.290;2022-09-01T07:30:58;25.70;1.00
429;DHT22;201;48.758;9.290;2022-09-01T07:33:25;26.90;1.00
429;DHT22;201;48.758;9.290;2022-09-01T07:35:52;27.40;1.00
429;DHT22;201;48.758;9.290;2022-09-01T07:38:20;26.20;1.00
429;DHT22;201;48.758;9.290;2022-09-01T07:40:46;24.80;1.00
429;DHT22;201;48.758;9.290;2022-09-01T07:43:21;23.50;1.00
429;DHT22;201;48.758;9.290;2022-09-01T07:45:54;21.80;1.00
429;DHT22;201;48.758;9.290;2022-09-01T07:48:21;21.40;1.00
429;DHT22;201;48.758;9.290;2022-09-01T07:50:49;21.00;1.00
429;DHT22;201;48.758;9.290;2022-09-01T07:53:20;20.40;1.00
429;DHT22;201;48.758;9.290;2022-09-01T07:55:48;20.00;1.00
429;DHT22;201;48.758;9.290;2022-09-01T07:58:16;19.50;1.00
429;DHT22;201;48.758;9.290;2022-09-01T08:00:43;19.50;1.00
429;DHT22;201;48.758;9.290;2022-09-01T08:03:10;19.80;1.00
429;DHT22;201;48.758;9.290;2022-09-01T08:05:36;19.90;1.00
429;DHT22;201;48.758;9.290;2022-09-01T08:08:02;20.00;1.00
429;DHT22;201;48.758;9.290;2022-09-01T08:10:27;19.90;1.00
429;DHT22;201;48.758;9.290;2022-09-01T08:12:53;19.70;1.00
429;DHT22;201;48.758;9.290;2022-09-01T08:15:18;19.60;1.00
429;DHT22;201;48.758;9.290;2022-09-01T08:17:44;19.60;1.00
429;DHT22;201;48.758;9.290;2022-09-01T08:20:10;19.70;1.00
429;DHT22;201;48.758;9.290;2022-09-01T08:22:37;19.50;1.00
429;DHT22;201;48.758;9.290;2022-09-01T08:25:09;19.50;1.00
429;DHT22;201;48.758;9.290;2022-09-01T08:27:37;19.50;1.00
429;DHT22;201;48.758;9.290;2022-09-01T08:30:05;19.40;1.00
429;DHT22;201;48.758;9.290;2022-09-01T08:32:32;19.20;1.00
429;DHT22;201;48.758;9.290;2022-09-01T08:34:58;19.20;1.00
429;DHT22;201;48.758;9.290;2022-09-01T08:37:23;19.30;1.00
429;DHT22;201;48.758;9.290;2022-09-01T08:39:50;19.50;1.00
429;DHT22;201;48.758;9.290;2022-09-01T08:45:03;19.70;1.00
429;DHT22;201;48.758;9.290;2022-09-01T08:47:33;19.90;1.00
429;DHT22;201;48.758;9.290;2022-09-01T08:50:00;20.10;1.00
429;DHT22;201;48.758;9.290;2022-09-01T08:52:41;20.20;1.00
429;DHT22;201;48.758;9.290;2022-09-01T08:55:20;20.20;1.00
429;DHT22;201;48.758;9.290;2022-09-01T08:57:50;20.00;1.00
429;DHT22;201;48.758;9.290;2022-09-01T09:00:18;19.80;1.00
429;DHT22;201;48.758;9.290;2022-09-01T09:05:52;19.90;1.00
429;DHT22;201;48.758;9.290;2022-09-01T09:08:54;20.00;1.00
429;DHT22;201;48.758;9.290;2022-09-01T09:14:40;20.60;1.00
429;DHT22;201;48.758;9.290;2022-09-01T09:17:10;20.70;1.00
429;DHT22;201;48.758;9.290;2022-09-01T09:19:40;20.60;1.00
429;DHT22;201;48.758;9.290;2022-09-01T09:22:13;20.60;1.00
429;DHT22;201;48.758;9.290;2022-09-01T09:24:52;20.60;1.00
429;DHT22;201;48.758;9.290;2022-09-01T09:29:59;21.30;1.00
429;DHT22;201;48.758;9.290;2022-09-01T09:32:44;21.80;1.00
429;DHT22;201;48.758;9.290;2022-09-01T09:35:38;22.20;1.00
429;DHT22;201;48.758;9.290;2022-09-01T09:41:04;21.60;1.00
429;DHT22;201;48.758;9.290;2022-09-01T09:43:34;21.40;1.00
429;DHT22;201;48.758;9.290;2022-09-01T09:48:46;23.00;1.00
429;DHT22;201;48.758;9.290;2022-09-01T09:51:19;23.20;1.00
429;DHT22;201;48.758;9.290;2022-09-01T09:53:44;23.40;1.00
429;DHT22;201;48.758;9.290;2022-09-01T09:56:22;23.20;1.00
429;DHT22;201;48.758;9.290;2022-09-01T09:58:51;23.20;1.00
429;DHT22;201;48.758;9.290;2022-09-01T10:03:52;22.80;1.00
429;DHT22;201;48.758;9.290;2022-09-01T10:06:41;23.10;1.00
429;DHT22;201;48.758;9.290;2022-09-01T10:11:55;23.10;1.00
429;DHT22;201;48.758;9.290;2022-09-01T10:14:37;22.80;1.00
429;DHT22;201;48.758;9.290;2022-09-01T10:17:11;22.60;1.00
429;DHT22;201;48.758;9.290;2022-09-01T10:19:40;22.80;1.00
429;DHT22;201;48.758;9.290;2022-09-01T10:22:08;23.00;1.00
429;DHT22;201;48.758;9.290;2022-09-01T10:24:36;23.70;1.00
429;DHT22;201;48.758;9.290;2022-09-01T10:27:17;24.00;1.00
429;DHT22;201;48.758;9.290;2022-09-01T10:32:25;24.20;1.00
429;DHT22;201;48.758;9.290;2022-09-01T10:34:52;24.00;1.00
429;DHT22;201;48.758;9.290;2022-09-01T10:37:18;24.10;1.00
429;DHT22;201;48.758;9.290;2022-09-01T10:42:49;24.00;1.00
429;DHT22;201;48.758;9.290;2022-09-01T10:50:48;23.40;1.00
429;DHT22;201;48.758;9.290;2022-09-01T11:07:02;22.00;1.00
429;DHT22;201;48.758;9.290;2022-09-01T11:09:43;22.30;1.00
429;DHT22;201;48.758;9.290;2022-09-01T11:12:27;22.80;1.00
429;DHT22;201;48.758;9.290;2022-09-01T11:15:03;23.60;1.00
429;DHT22;201;48.758;9.290;2022-09-01T11:20:22;24.40;1.00
429;DHT22;201;48.758;9.290;2022-09-01T11:25:56;24.70;1.00
429;DHT22;201;48.758;9.290;2022-09-01T11:31:10;25.20;1.00
429;DHT22;201;48.758;9.290;2022-09-01T11:39:05;24.90;1.00
429;DHT22;201;48.758;9.290;2022-09-01T11:44:16;24.60;1.00
429;DHT22;201;48.758;9.290;2022-09-01T11:46:44;24.50;1.00
429;DHT22;201;48.758;9.290;2022-09-01T11:49:29;24.40;1.00
429;DHT22;201;48.758;9.290;2022-09-01T11:51:56;24.50;1.00
429;DHT22;201;48.758;9.290;2022-09-01T11:54:23;24.80;1.00
429;DHT22;201;48.758;9.290;2022-09-01T11:56:49;25.10;1.00
429;DHT22;201;48.758;9.290;2022-09-01T11:59:32;25.50;1.00
429;DHT22;201;48.758;9.290;2022-09-01T12:01:59;25.90;1.00
429;DHT22;201;48.758;9.290;2022-09-01T12:04:31;25.70;1.00
429;DHT22;201;48.758;9.290;2022-09-01T12:07:10;25.40;1.00
429;DHT22;201;48.758;9.290;2022-09-01T12:09:42;24.70;1.00
429;DHT22;201;48.758;9.290;2022-09-01T12:15:00;23.90;1.00
429;DHT22;201;48.758;9.290;2022-09-01T12:17:26;23.60;1.00
429;DHT22;201;48.758;9.290;2022-09-01T12:19:52;23.50;1.00
429;DHT22;201;48.758;9.290;2022-09-01T12:24:50;23.20;1.00
429;DHT22;201;48.758;9.290;2022-09-01T12:27:17;23.40;1.00
429;DHT22;201;48.758;9.290;2022-09-01T12:29:44;23.10;1.00
429;DHT22;201;48.758;9.290;2022-09-01T12:32:11;23.00;1.00
429;DHT22;201;48.758;9.290;2022-09-01T12:34:45;22.80;1.00
429;DHT22;201;48.758;9.290;2022-09-01T12:39:45;22.60;1.00
429;DHT22;201;48.758;9.290;2022-09-01T12:42:24;22.40;1.00
429;DHT22;201;48.758;9.290;2022-09-01T12:44:59;22.40;1.00
429;DHT22;201;48.758;9.290;2022-09-01T12:50:06;22.20;1.00
429;DHT22;201;48.758;9.290;2022-09-01T12:52:34;22.40;1.00
429;DHT22;201;48.758;9.290;2022-09-01T12:57:35;23.00;1.00
429;DHT22;201;48.758;9.290;2022-09-01T13:02:39;23.50;1.00
429;DHT22;201;48.758;9.290;2022-09-01T13:05:29;23.60;1.00
429;DHT22;201;48.758;9.290;2022-09-01T13:07:59;23.60;1.00
429;DHT22;201;48.758;9.290;2022-09-01T13:10:30;23.40;1.00
429;DHT22;201;48.758;9.290;2022-09-01T13:12:56;23.30;1.00
429;DHT22;201;48.758;9.290;2022-09-01T13:15:23;23.20;1.00
429;DHT22;201;48.758;9.290;2022-09-01T13:17:50;23.20;1.00
429;DHT22;201;48.758;9.290;2022-09-01T13:20:15;23.10;1.00
429;DHT22;201;48.758;9.290;2022-09-01T13:22:41;23.00;1.00
429;DHT22;201;48.758;9.290;2022-09-01T13:25:10;23.00;1.00
429;DHT22;201;48.758;9.290;2022-09-01T13:27:38;23.00;1.00
429;DHT22;201;48.758;9.290;2022-09-01T13:30:09;22.80;1.00
429;DHT22;201;48.758;9.290;2022-09-01T13:32:35;22.70;1.00
429;DHT22;201;48.758;9.290;2022-09-01T13:35:01;22.70;1.00
429;DHT22;201;48.758;9.290;2022-09-01T13:37:27;22.60;1.00
429;DHT22;201;48.758;9.290;2022-09-01T13:39:52;22.70;1.00
429;DHT22;201;48.758;9.290;2022-09-01T13:42:18;22.90;1.00
429;DHT22;201;48.758;9.290;2022-09-01T13:44:44;22.90;1.00
429;DHT22;201;48.758;9.290;2022-09-01T13:47:11;22.80;1.00
429;DHT22;201;48.758;9.290;2022-09-01T13:49:37;22.70;1.00
429;DHT22;201;48.758;9.290;2022-09-01T13:52:02;22.70;1.00
429;DHT22;201;48.758;9.290;2022-09-01T13:54:28;22.50;1.00
429;DHT22;201;48.758;9.290;2022-09-01T13:56:53;22.50;1.00
429;DHT22;201;48.758;9.290;2022-09-01T13:59:19;22.80;1.00
429;DHT22;201;48.758;9.290;2022-09-01T14:01:44;23.00;1.00
429;DHT22;201;48.758;9.290;2022-09-01T14:04:10;23.00;1.00
429;DHT22;201;48.758;9.290;2022-09-01T14:06:41;22.90;1.00
429;DHT22;201;48.758;9.290;2022-09-01T14:09:10;22.90;1.00
429;DHT22;201;48.758;9.290;2022-09-01T14:11:35;23.00;1.00
429;DHT22;201;48.758;9.290;2022-09-01T14:14:01;22.90;1.00
429;DHT22;201;48.758;9.290;2022-09-01T14:16:26;22.90;1.00
429;DHT22;201;48.758;9.290;2022-09-01T14:18:52;22.90;1.00
429;DHT22;201;48.758;9.290;2022-09-01T14:21:18;22.70;1.00
429;DHT22;201;48.758;9.290;2022-09-01T14:23:44;22.70;1.00
429;DHT22;201;48.758;9.290;2022-09-01T14:26:12;22.50;1.00
429;DHT22;201;48.758;9.290;2022-09-01T14:28:39;22.50;1.00
429;DHT22;201;48.758;9.290;2022-09-01T14:31:09;22.50;1.00
429;DHT22;201;48.758;9.290;2022-09-01T14:33:36;22.50;1.00
429;DHT22;201;48.758;9.290;2022-09-01T14:36:02;22.50;1.00
429;DHT22;201;48.758;9.290;2022-09-01T14:38:28;22.30;1.00
429;DHT22;201;48.758;9.290;2022-09-01T14:40:54;22.10;1.00
429;DHT22;201;48.758;9.290;2022-09-01T14:43:20;22.10;1.00
429;DHT22;201;48.758;9.290;2022-09-01T14:45:46;22.20;1.00
429;DHT22;201;48.758;9.290;2022-09-01T14:48:14;22.30;1.00
429;DHT22;201;48.758;9.290;2022-09-01T14:50:45;22.30;1.00
429;DHT22;201;48.758;9.290;2022-09-01T14:53:12;22.40;1.00
429;DHT22;201;48.758;9.290;2022-09-01T14:55:38;22.30;1.00
429;DHT22;201;48.758;9.290;2022-09-01T14:58:04;22.30;1.00
429;DHT22;201;48.758;9.290;2022-09-01T15:00:30;22.30;1.00
429;DHT22;201;48.758;9.290;2022-09-01T15:02:56;22.40;1.00
429;DHT22;201;48.758;9.290;2022-09-01T15:05:22;22.50;1.00
429;DHT22;201;48.758;9.290;2022-09-01T15:07:49;22.40;1.00
429;DHT22;201;48.758;9.290;2022-09-01T15:10:17;22.40;1.00
429;DHT22;201;48.758;9.290;2022-09-01T15:12:43;22.50;1.00
429;DHT22;201;48.758;9.290;2022-09-01T15:15:09;22.50;1.00
429;DHT22;201;48.758;9.290;2022-09-01T15:17:35;22.30;1.00
429;DHT22;201;48.758;9.290;2022-09-01T15:20:01;22.10;1.00
429;DHT22;201;48.758;9.290;2022-09-01T15:22:46;22.00;1.00
429;DHT22;201;48.758;9.290;2022-09-01T15:25:12;22.10;1.00
429;DHT22;201;48.758;9.290;2022-09-01T15:27:38;22.10;1.00
429;DHT22;201;48.758;9.290;2022-09-01T15:30:04;22.20;1.00
429;DHT22;201;48.758;9.290;2022-09-01T15:32:39;22.10;1.00
429;DHT22;201;48.758;9.290;2022-09-01T15:35:06;22.10;1.00
429;DHT22;201;48.758;9.290;2022-09-01T15:37:32;22.10;1.00
429;DHT22;201;48.758;9.290;2022-09-01T15:39:58;22.20;1.00
429;DHT22;201;48.758;9.290;2022-09-01T15:42:23;22.10;1.00
429;DHT22;201;48.758;9.290;2022-09-01T15:44:49;22.10;1.00
429;DHT22;201;48.758;9.290;2022-09-01T15:47:14;22.00;1.00
429;DHT22;201;48.758;9.290;2022-09-01T15:49:40;22.00;1.00
429;DHT22;201;48.758;9.290;2022-09-01T15:52:06;21.90;1.00
429;DHT22;201;48.758;9.290;2022-09-01T15:54:36;21.90;1.00
429;DHT22;201;48.758;9.290;2022-09-01T15:57:01;21.80;1.00
429;DHT22;201;48.758;9.290;2022-09-01T15:59:27;21.80;1.00
429;DHT22;201;48.758;9.290;2022-09-01T16:01:53;21.90;1.00
429;DHT22;201;48.758;9.290;2022-09-01T16:04:18;21.90;1.00
429;DHT22;201;48.758;9.290;2022-09-01T16:06:44;21.90;1.00
429;DHT22;201;48.758;9.290;2022-09-01T16:09:11;21.90;1.00
429;DHT22;201;48.758;9.290;2022-09-01T16:11:38;21.90;1.00
429;DHT22;201;48.758;9.290;2022-09-01T16:14:04;21.90;1.00
429;DHT22;201;48.758;9.290;2022-09-01T16:17:00;21.80;1.00
429;DHT22;201;48.758;9.290;2022-09-01T16:19:45;21.80;1.00
429;DHT22;201;48.758;9.290;2022-09-01T16:22:21;21.80;1.00
429;DHT22;201;48.758;9.290;2022-09-01T16:24:50;21.80;1.00
429;DHT22;201;48.758;9.290;2022-09-01T16:27:22;21.70;1.00
429;DHT22;201;48.758;9.290;2022-09-01T16:29:54;21.70;1.00
429;DHT22;201;48.758;9.290;2022-09-01T16:32:20;21.70;1.00
429;DHT22;201;48.758;9.290;2022-09-01T16:34:48;21.70;1.00
429;DHT22;201;48.758;9.290;2022-09-01T16:40:06;21.50;1.00
429;DHT22;201;48.758;9.290;2022-09-01T16:42:39;21.50;1.00
429;DHT22;201;48.758;9.290;2022-09-01T16:45:24;21.40;1.00
429;DHT22;201;48.758;9.290;2022-09-01T16:56:06;21.10;1.00
429;DHT22;201;48.758;9.290;2022-09-01T17:01:46;21.00;1.00
429;DHT22;201;48.758;9.290;2022-09-01T17:04:33;20.90;1.00
429;DHT22;201;48.758;9.290;2022-09-01T17:09:44;20.70;1.00
429;DHT22;201;48.758;9.290;2022-09-01T17:12:15;20.70;1.00
429;DHT22;201;48.758;9.290;2022-09-01T17:14:48;20.70;1.00
429;DHT22;201;48.758;9.290;2022-09-01T17:17:24;20.60;1.00
429;DHT22;201;48.758;9.290;2022-09-01T17:19:50;20.50;1.00
429;DHT22;201;48.758;9.290;2022-09-01T17:22:19;20.50;1.00
429;DHT22;201;48.758;9.290;2022-09-01T17:24:51;20.40;1.00
429;DHT22;201;48.758;9.290;2022-09-01T17:27:30;20.40;1.00
429;DHT22;201;48.758;9.290;2022-09-01T17:29:57;20.30;1.00
429;DHT22;201;48.758;9.290;2022-09-01T17:38:00;20.10;1.00
429;DHT22;201;48.758;9.290;2022-09-01T17:41:05;20.00;1.00
429;DHT22;201;48.758;9.290;2022-09-01T17:53:01;19.70;1.00
429;DHT22;201;48.758;9.290;2022-09-01T17:55:35;19.60;1.00
429;DHT22;201;48.758;9.290;2022-09-01T18:01:23;19.50;1.00
429;DHT22;201;48.758;9.290;2022-09-01T18:07:06;19.30;1.00
429;DHT22;201;48.758;9.290;2022-09-01T18:09:41;19.20;1.00
429;DHT22;201;48.758;9.290;2022-09-01T18:12:09;19.20;1.00
429;DHT22;201;48.758;9.290;2022-09-01T18:14:56;19.10;1.00
429;DHT22;201;48.758;9.290;2022-09-01T18:17:28;19.00;1.00
429;DHT22;201;48.758;9.290;2022-09-01T18:20:08;18.90;1.00
429;DHT22;201;48.758;9.290;2022-09-01T18:25:23;18.70;1.00
429;DHT22;201;48.758;9.290;2022-09-01T18:27:48;18.70;1.00
429;DHT22;201;48.758;9.290;2022-09-01T18:30:20;18.60;1.00
429;DHT22;201;48.758;9.290;2022-09-01T18:32:59;18.50;1.00
429;DHT22;201;48.758;9.290;2022-09-01T18:35:45;18.50;1.00
429;DHT22;201;48.758;9.290;2022-09-01T18:38:31;18.50;1.00
429;DHT22;201;48.758;9.290;2022-09-01T18:43:43;18.30;1.00
429;DHT22;201;48.758;9.290;2022-09-01T18:49:08;18.30;1.00
429;DHT22;201;48.758;9.290;2022-09-01T19:02:36;18.00;1.00
429;DHT22;201;48.758;9.290;2022-09-01T19:07:56;17.70;1.00
429;DHT22;201;48.758;9.290;2022-09-01T19:10:29;17.70;1.00
429;DHT22;201;48.758;9.290;2022-09-01T19:15:47;17.70;1.00
429;DHT22;201;48.758;9.290;2022-09-01T19:18:37;17.70;1.00
429;DHT22;201;48.758;9.290;2022-09-01T19:21:08;17.60;1.00